Casper, WY

11:31 AM MDT on July 30, 2014 (GMT -0600)
North of Casper, WY (KWYBARNU1) Elev 5276 ft | 42.91 °N, 106.35 °W | Change Station

Current weather conditions updated 4 minutes ago

Clear
Clear
70.3 °F
Feels Like 76 °F
N
0.0
Wind Variable Wind from NNE
Gusts 0.0 mph

Today is forecast to be Much Warmer than yesterday.

Today
High -- | Low -- °F
--% Chance of Precip.
Yesterday
High -- | Low -- °F
Precip. -- in
5:54 AM 8:28 PM
Waxing Crescent, 12% visible
Pressure 30.34 in
Visibility 10.0 miles
Clouds Clear
Heat Index 76 °F
Dew Point 55 °F
Humidity 58%
Rainfall 0.00 in
Snow Depth 1 in
UV 9 out of 12
Pollen 5.00 out of 12
Air Quality Not available.
Flu Activity Not available.
METAR KCPR 301653Z 12003KT 10SM CLR 18/11 A3034

More Conditions Fewer Conditions

Pressure 30.34 in
Visibility 10.0 miles
Clouds Clear
Heat Index 76 °F
Dew Point 55 °F
Humidity 58%
Rainfall 0.00 in
Snow Depth 1 in
UV 9 out of 12
Pollen 5.00 out of 12
Air Quality Not available.
Flu Activity Not available.
METAR KCPR 301653Z 12003KT 10SM CLR 18/11 A3034

More Conditions Fewer Conditions

10-Day Weather Forecast

Almanac

Astronomy

Jul. 30, 2014 Rise Set
Actual Time 5:54 AM MDT 8:28 PM MDT
Civil Twilight 5:22 AM MDT 9:00 PM MDT
Nautical Twilight 4:41 AM MDT 9:40 PM MDT
Astronomical Twilight 3:55 AM MDT 10:26 PM MDT
Moon 9:35 AM MDT 10:05 PM MDT
Length of Visible Light 15h 38m
Length of Day
14h 33m
Tomorrow will be 2m 10s shorter.
Waxing Crescent, 12% of the Moon is Illuminated
Today
Waxing Crescent
Aug 3
First Quarter
Aug 10
Full
Aug 17
Last Quarter
Aug 25
New

Today's Extremes

State Highs State Lows

Community

WunderPhotos

Upload Photos

1,739,140 photos uploaded!

Nearby

Snow Depth

Station Depth Elevation
Casper Mountain 1 in 7850 ft
Reno Hill 0 in 8500 ft
Windy Peak 0 in 7900 ft
Grave Springs 1 in 8550 ft
Middle Powder 1 in 7760 ft

Earthquake Activity

City Distance Mag. Time & Date
No recent earthquake activity has been reported nearby.
Minimum magnitude displayed is 2.5.

Coastal Water Temperatures

Place Temperature
No Stations Reporting

Nearby Weather Stations

Station Location Temp. Heat Index Dew Point Humidity Wind Precip. Elev Updated Type
HADS NORTH PLATTE RIVER AT CASPER WY, Casper, WY 69 °F - - - North  at  - 0.00 in / hr 5100 ft 10:30 AM MDT MADIS
North of Casper, WY, Bar Nunn, WY 70.3 °F 76 °F 55 °F 58% NNE  at  0.0 mph 0.00 in / hr 5276 ft 11:27 AM MDT Normal
RAWS CASPER MOUNTAIN WY, Casper, WY 59 °F - 46 °F 63% East  at  5 mph 0.00 in / hr 7740 ft 9:52 AM MDT MADIS

Show More Stations Show Fewer Stations